Time;durP1;ratioP1;P1;durP2;ratioP2;P2;SDS_P1;SDS_P2;PMS_P1;PMS_P2;Temp;Humidity;BMP_temperature;BMP_pressure;BME280_temperature;BME280_humidity;BME280_pressure;Samples;Min_cycle;Max_cycle;Signal;HPM_P1;HPM_P2
2022/03/26 00:00:22;;;;;;;37.33;18.02;;;3.50;86.50;;;;;;5015483;28;20049;-88
2022/03/26 00:02:47;;;;;;;36.15;17.65;;;3.60;86.60;;;;;;5031032;28;20492;-89
2022/03/26 00:05:13;;;;;;;38.88;18.77;;;3.50;86.80;;;;;;5003688;28;20052;-89
2022/03/26 00:07:39;;;;;;;34.90;17.15;;;3.50;87.10;;;;;;4999563;28;20079;-88
2022/03/26 00:10:05;;;;;;;40.70;18.38;;;3.40;86.90;;;;;;5024418;28;20052;-88
2022/03/26 00:12:31;;;;;;;36.05;18.17;;;3.40;87.10;;;;;;5032759;28;20551;-89
2022/03/26 00:14:58;;;;;;;39.17;18.88;;;3.30;87.50;;;;;;5013893;28;20040;-90
2022/03/26 00:17:25;;;;;;;45.53;20.10;;;3.30;87.60;;;;;;4998696;28;20053;-89
2022/03/26 00:19:51;;;;;;;46.67;21.58;;;3.20;88.00;;;;;;5015094;28;20057;-88
2022/03/26 00:22:17;;;;;;;43.30;20.90;;;3.20;89.00;;;;;;4999540;28;20529;-89
2022/03/26 00:24:43;;;;;;;41.08;20.05;;;3.20;89.30;;;;;;5030944;28;20041;-87
2022/03/26 00:27:08;;;;;;;40.45;20.85;;;3.30;89.30;;;;;;4999377;28;20053;-89
2022/03/26 00:29:34;;;;;;;48.05;22.45;;;3.20;89.50;;;;;;5014912;28;20534;-89
2022/03/26 00:32:00;;;;;;;41.10;22.05;;;3.20;89.70;;;;;;5022752;28;20144;-88
2022/03/26 00:34:26;;;;;;;45.97;21.75;;;3.20;90.00;;;;;;5015258;28;21682;-87
2022/03/26 00:36:51;;;;;;;49.92;25.10;;;3.20;90.00;;;;;;5036808;28;20123;-88
2022/03/26 00:39:17;;;;;;;57.65;25.75;;;3.10;90.10;;;;;;4992189;28;20036;-88
2022/03/26 00:41:43;;;;;;;66.88;29.90;;;3.10;90.30;;;;;;5014908;28;20363;-88
2022/03/26 00:44:08;;;;;;;87.85;38.08;;;3.10;90.50;;;;;;5014585;28;20049;-89
2022/03/26 00:46:34;;;;;;;78.85;33.00;;;3.10;90.90;;;;;;5022385;28;20049;-89
2022/03/26 00:49:00;;;;;;;75.03;33.28;;;3.00;91.30;;;;;;4979960;28;20081;-88
2022/03/26 00:51:26;;;;;;;76.18;34.65;;;3.10;91.60;;;;;;5013001;28;20060;-89
2022/03/26 00:53:52;;;;;;;75.78;32.90;;;3.00;91.60;;;;;;5048151;28;20052;-89
2022/03/26 00:56:17;;;;;;;81.60;37.30;;;3.00;91.60;;;;;;5045638;28;20065;-88
2022/03/26 00:58:43;;;;;;;76.57;35.60;;;3.00;91.60;;;;;;5031107;28;20079;-89
2022/03/26 01:01:10;;;;;;;80.15;34.85;;;3.00;91.90;;;;;;4998661;28;20041;-89
2022/03/26 01:03:36;;;;;;;71.78;33.35;;;3.00;92.10;;;;;;5015178;28;20083;-90
2022/03/26 01:06:04;;;;;;;66.45;29.15;;;2.90;92.10;;;;;;5006902;28;20489;-89
2022/03/26 01:08:30;;;;;;;64.03;26.85;;;2.90;92.20;;;;;;5034382;28;20163;-88
2022/03/26 01:10:56;;;;;;;59.88;27.20;;;2.90;92.40;;;;;;5006715;28;20051;-89
2022/03/26 01:13:25;;;;;;;67.32;31.33;;;2.80;92.90;;;;;;5043098;28;20041;-88
2022/03/26 01:15:51;;;;;;;64.25;29.35;;;2.80;92.80;;;;;;5005583;28;20113;-89
2022/03/26 01:18:17;;;;;;;53.28;24.08;;;2.80;93.00;;;;;;5045328;28;20090;-89
2022/03/26 01:20:43;;;;;;;57.40;26.10;;;2.70;93.00;;;;;;5014558;28;20120;-90
2022/03/26 01:23:09;;;;;;;59.38;25.88;;;2.70;93.20;;;;;;5015378;28;20128;-88
2022/03/26 01:25:35;;;;;;;56.60;24.90;;;2.70;93.60;;;;;;5017182;28;20072;-89
2022/03/26 01:28:01;;;;;;;59.50;26.55;;;2.70;93.40;;;;;;4997824;28;20072;-90
2022/03/26 01:30:27;;;;;;;61.38;27.17;;;2.70;93.50;;;;;;5021664;28;20040;-89
2022/03/26 01:32:53;;;;;;;58.25;26.38;;;2.60;93.60;;;;;;5014435;28;20051;-89
2022/03/26 01:35:19;;;;;;;64.65;27.30;;;2.60;93.60;;;;;;4998309;28;20110;-89
2022/03/26 01:37:45;;;;;;;56.10;25.58;;;2.60;93.80;;;;;;5015014;28;20110;-87
2022/03/26 01:40:11;;;;;;;54.78;25.08;;;2.60;93.90;;;;;;5013617;28;20041;-87
2022/03/26 01:42:36;;;;;;;59.03;27.17;;;2.50;94.10;;;;;;5048000;28;20053;-87
2022/03/26 01:45:03;;;;;;;62.00;26.95;;;2.60;94.20;;;;;;5016008;28;20072;-87
2022/03/26 01:47:29;;;;;;;59.58;27.67;;;2.50;94.30;;;;;;5015440;28;20415;-88
2022/03/26 01:49:55;;;;;;;55.58;25.15;;;2.50;94.40;;;;;;4992901;28;20045;-87
2022/03/26 01:52:20;;;;;;;58.95;26.42;;;2.50;94.70;;;;;;5013778;28;20575;-90
2022/03/26 01:54:46;;;;;;;59.30;27.85;;;2.50;95.00;;;;;;5015592;28;20040;-90
2022/03/26 01:57:12;;;;;;;65.10;29.50;;;2.50;95.10;;;;;;5034232;28;20234;-89
2022/03/26 01:59:39;;;;;;;69.72;29.77;;;2.50;95.30;;;;;;5001953;28;20628;-90
2022/03/26 02:02:06;;;;;;;62.65;28.35;;;2.50;95.30;;;;;;5001660;28;20037;-89
2022/03/26 02:04:34;;;;;;;67.93;30.23;;;2.50;95.10;;;;;;5034288;28;20076;-90
2022/03/26 02:07:02;;;;;;;84.35;34.28;;;2.50;95.20;;;;;;5027627;28;20037;-89
2022/03/26 02:09:33;;;;;;;78.65;34.50;;;2.50;95.90;;;;;;5035335;28;20076;-90
2022/03/26 02:11:59;;;;;;;89.35;37.70;;;2.50;96.20;;;;;;5025880;28;20174;-89
2022/03/26 02:14:25;;;;;;;92.07;38.05;;;2.60;96.60;;;;;;5001589;28;20056;-89
2022/03/26 02:16:51;;;;;;;96.88;40.22;;;2.60;96.80;;;;;;5016355;28;20045;-87
2022/03/26 02:19:16;;;;;;;91.45;39.33;;;2.70;96.90;;;;;;5000997;28;20106;-90
2022/03/26 02:21:43;;;;;;;94.30;40.92;;;2.70;96.80;;;;;;5034238;28;20095;-89
2022/03/26 02:24:09;;;;;;;97.65;41.40;;;2.70;96.80;;;;;;5017855;28;20055;-88
2022/03/26 02:26:36;;;;;;;102.72;43.83;;;2.80;96.90;;;;;;5032064;28;20053;-89
2022/03/26 02:29:12;;;;;;;106.72;43.10;;;2.70;97.20;;;;;;5012234;28;20108;-89
2022/03/26 02:31:39;;;;;;;111.45;47.13;;;2.70;97.50;;;;;;5018346;28;20448;-90
2022/03/26 02:34:07;;;;;;;117.93;47.83;;;2.60;97.60;;;;;;5017733;28;20467;-89
2022/03/26 02:36:33;;;;;;;117.35;48.22;;;2.60;97.90;;;;;;5032696;28;20052;-90
2022/03/26 02:38:58;;;;;;;122.53;50.63;;;2.70;98.20;;;;;;5000594;28;20037;-88
2022/03/26 02:41:24;;;;;;;126.40;50.95;;;2.60;98.30;;;;;;5005955;28;20098;-88
2022/03/26 02:43:50;;;;;;;132.68;49.85;;;2.60;98.20;;;;;;5016637;28;20106;-90
2022/03/26 02:46:15;;;;;;;128.45;50.22;;;2.60;98.50;;;;;;5015620;28;20175;-89
2022/03/26 02:48:44;;;;;;;118.93;47.88;;;2.50;99.00;;;;;;4983172;28;20045;-90
2022/03/26 02:51:09;;;;;;;117.88;47.08;;;2.50;98.80;;;;;;5030013;28;20052;-88
2022/03/26 02:53:35;;;;;;;126.15;48.67;;;2.50;99.00;;;;;;5017432;28;20064;-88
2022/03/26 02:56:01;;;;;;;115.25;48.03;;;2.40;99.20;;;;;;5016841;28;20057;-89
2022/03/26 02:58:27;;;;;;;117.90;46.05;;;2.40;99.60;;;;;;5001197;28;20094;-90
2022/03/26 03:00:52;;;;;;;109.35;42.75;;;2.40;99.90;;;;;;5001030;28;20477;-90
2022/03/26 03:03:18;;;;;;;101.20;41.90;;;2.40;99.90;;;;;;5033664;28;20080;-90
2022/03/26 03:05:46;;;;;;;109.00;43.97;;;2.40;99.90;;;;;;5016571;28;20068;-89
2022/03/26 03:08:15;;;;;;;100.32;41.10;;;2.40;99.90;;;;;;5016160;28;20045;-90
2022/03/26 03:10:43;;;;;;;107.95;42.42;;;2.40;99.90;;;;;;5034365;28;20131;-90
2022/03/26 03:13:09;;;;;;;97.32;39.47;;;2.30;99.90;;;;;;5017276;28;20078;-89
2022/03/26 03:15:35;;;;;;;96.80;40.92;;;2.30;99.90;;;;;;5000396;28;20080;-88
2022/03/26 03:18:02;;;;;;;99.35;39.90;;;2.40;99.90;;;;;;5009702;28;20087;-89
2022/03/26 03:20:29;;;;;;;103.07;39.65;;;2.30;99.90;;;;;;5030359;28;20049;-89
2022/03/26 03:22:56;;;;;;;94.07;37.60;;;2.20;99.90;;;;;;5017055;28;20049;-88
2022/03/26 03:25:25;;;;;;;86.80;35.75;;;2.20;99.90;;;;;;5013897;28;20060;-88
2022/03/26 03:27:51;;;;;;;90.60;37.33;;;2.10;99.90;;;;;;5027863;28;20072;-88
2022/03/26 03:30:17;;;;;;;96.18;38.83;;;2.20;99.90;;;;;;4995908;28;20041;-89
2022/03/26 03:32:44;;;;;;;93.40;37.13;;;2.10;99.90;;;;;;5029976;28;20053;-89
2022/03/26 03:35:09;;;;;;;99.25;38.08;;;2.00;99.90;;;;;;5012895;28;20104;-87
2022/03/26 03:37:37;;;;;;;88.18;36.63;;;2.00;99.90;;;;;;5013563;28;20532;-88
2022/03/26 03:40:04;;;;;;;87.53;36.10;;;2.00;99.90;;;;;;5029406;28;20041;-88
2022/03/26 03:42:29;;;;;;;94.25;38.58;;;2.00;99.90;;;;;;5013797;28;20049;-89
2022/03/26 03:44:55;;;;;;;91.72;36.80;;;2.00;99.90;;;;;;5013274;28;20100;-89
2022/03/26 03:47:21;;;;;;;93.05;38.53;;;1.90;99.90;;;;;;4996510;28;20049;-89
2022/03/26 03:49:46;;;;;;;103.65;40.22;;;1.90;99.90;;;;;;4996098;28;20048;-89
2022/03/26 03:52:12;;;;;;;122.57;45.97;;;1.90;99.90;;;;;;5029491;28;20045;-90
2022/03/26 03:54:38;;;;;;;115.93;45.60;;;1.90;99.90;;;;;;4977612;28;20065;-89
2022/03/26 03:57:03;;;;;;;121.40;44.97;;;1.90;99.90;;;;;;5009924;28;20045;-87
2022/03/26 03:59:29;;;;;;;121.05;45.63;;;1.90;99.90;;;;;;5013409;28;20045;-88
2022/03/26 04:01:55;;;;;;;128.85;48.10;;;1.90;99.90;;;;;;5027852;28;20108;-87
2022/03/26 04:04:20;;;;;;;145.57;53.67;;;1.90;99.90;;;;;;4983301;28;20048;-88
2022/03/26 04:06:46;;;;;;;146.20;52.17;;;1.90;99.90;;;;;;5029245;28;20045;-88
2022/03/26 04:09:12;;;;;;;145.75;53.55;;;2.00;99.90;;;;;;5013153;28;20132;-89
2022/03/26 04:11:37;;;;;;;151.95;56.38;;;2.00;99.90;;;;;;5013042;28;20049;-89
2022/03/26 04:14:04;;;;;;;143.80;54.95;;;2.10;99.90;;;;;;5012502;28;20049;-88
2022/03/26 04:16:30;;;;;;;164.95;57.95;;;2.00;99.90;;;;;;5009835;28;20126;-89
2022/03/26 04:18:58;;;;;;;154.18;58.03;;;2.10;99.90;;;;;;4995446;28;20049;-89
2022/03/26 04:21:24;;;;;;;163.60;57.80;;;2.10;99.90;;;;;;5012208;28;20077;-88
2022/03/26 04:23:49;;;;;;;143.32;54.83;;;2.10;99.90;;;;;;5013159;28;20060;-88
2022/03/26 04:26:16;;;;;;;139.98;52.35;;;2.10;99.90;;;;;;4996424;28;20069;-88
2022/03/26 04:28:41;;;;;;;105.38;42.03;;;2.00;99.90;;;;;;5027478;28;20045;-89
2022/03/26 04:31:08;;;;;;;93.28;38.17;;;2.00;99.90;;;;;;5014179;28;20044;-89
2022/03/26 04:33:34;;;;;;;93.32;38.20;;;2.00;99.90;;;;;;4998207;28;20081;-88
2022/03/26 04:35:59;;;;;;;89.13;36.00;;;2.00;99.90;;;;;;5014281;28;20080;-88
2022/03/26 04:38:25;;;;;;;93.20;37.72;;;1.90;99.90;;;;;;5012978;28;20107;-88
2022/03/26 04:40:51;;;;;;;105.35;40.15;;;1.90;99.90;;;;;;4998393;28;20569;-90
2022/03/26 04:43:18;;;;;;;101.95;40.70;;;1.80;99.90;;;;;;4998998;28;20057;-89
2022/03/26 04:45:44;;;;;;;98.82;40.42;;;1.80;99.90;;;;;;5032711;28;20049;-89
2022/03/26 04:48:10;;;;;;;99.72;39.67;;;1.70;99.90;;;;;;5014837;28;20098;-89
2022/03/26 04:50:36;;;;;;;109.10;41.60;;;1.70;99.90;;;;;;5003401;28;20053;-88
2022/03/26 04:53:02;;;;;;;118.20;43.65;;;1.70;99.90;;;;;;5011963;28;20041;-90
2022/03/26 04:55:27;;;;;;;125.68;47.83;;;1.60;99.90;;;;;;5031685;28;20040;-89
2022/03/26 04:57:53;;;;;;;134.55;49.08;;;1.60;99.90;;;;;;4999402;28;20061;-88
2022/03/26 05:00:20;;;;;;;124.38;47.67;;;1.50;99.90;;;;;;5030429;28;20052;-89
2022/03/26 05:02:47;;;;;;;125.18;46.80;;;1.60;99.90;;;;;;5032193;28;20131;-89
2022/03/26 05:05:14;;;;;;;128.98;48.17;;;1.50;99.90;;;;;;5015416;28;20040;-89
2022/03/26 05:07:46;;;;;;;122.72;44.83;;;1.40;99.90;;;;;;5021052;28;20059;-90
2022/03/26 05:10:32;;;;;;;119.57;46.33;;;1.40;99.90;;;;;;5020991;28;20085;-90
2022/03/26 05:12:58;;;;;;;125.72;47.60;;;1.40;99.90;;;;;;5000427;28;20498;-89
2022/03/26 05:15:27;;;;;;;121.82;46.03;;;1.40;99.90;;;;;;5015758;28;20683;-88
2022/03/26 05:17:54;;;;;;;115.57;45.13;;;1.30;99.90;;;;;;4999405;28;20087;-89
2022/03/26 05:20:20;;;;;;;101.57;40.97;;;1.40;99.90;;;;;;4996804;28;20049;-89
2022/03/26 05:22:47;;;;;;;105.88;39.38;;;1.40;99.90;;;;;;5031318;28;20095;-89
2022/03/26 05:25:14;;;;;;;106.55;40.95;;;1.40;99.90;;;;;;5015106;28;20087;-89
2022/03/26 05:27:50;;;;;;;94.50;37.72;;;1.40;99.90;;;;;;5031829;28;20398;-89
2022/03/26 05:30:17;;;;;;;95.90;38.15;;;1.40;99.90;;;;;;5017590;28;20114;-89
2022/03/26 05:32:43;;;;;;;95.47;38.47;;;1.40;99.90;;;;;;5034479;28;20068;-90
2022/03/26 05:35:14;;;;;;;99.15;39.60;;;1.40;99.90;;;;;;5000094;28;20049;-87
2022/03/26 05:37:44;;;;;;;101.38;39.17;;;1.50;99.90;;;;;;5003008;28;20056;-89
2022/03/26 05:40:15;;;;;;;107.03;39.72;;;1.30;99.90;;;;;;5034633;28;20056;-89
2022/03/26 05:42:40;;;;;;;97.68;38.10;;;1.30;99.90;;;;;;5012450;28;20045;-90
2022/03/26 05:45:07;;;;;;;99.22;36.80;;;1.20;99.90;;;;;;4992179;28;20057;-89
2022/03/26 05:47:34;;;;;;;90.80;35.10;;;1.30;99.90;;;;;;5018530;28;20088;-89
2022/03/26 05:50:00;;;;;;;92.18;36.58;;;1.30;99.90;;;;;;5036030;28;20402;-90
2022/03/26 05:52:26;;;;;;;98.78;37.78;;;1.30;99.90;;;;;;5016794;28;20357;-90
2022/03/26 05:54:52;;;;;;;93.43;35.33;;;1.40;99.90;;;;;;5018057;28;20129;-90
2022/03/26 05:57:20;;;;;;;99.00;37.65;;;1.40;99.90;;;;;;5018187;28;20513;-90
2022/03/26 05:59:46;;;;;;;92.53;37.15;;;1.40;99.90;;;;;;5035108;28;20037;-89
2022/03/26 06:02:13;;;;;;;90.93;34.97;;;1.50;99.90;;;;;;5001537;28;20496;-89
2022/03/26 06:04:43;;;;;;;98.60;37.70;;;1.50;99.90;;;;;;5017403;28;20048;-89
2022/03/26 06:07:09;;;;;;;104.28;38.42;;;1.50;99.90;;;;;;5018302;28;20049;-88
2022/03/26 06:09:36;;;;;;;96.65;38.08;;;1.50;99.90;;;;;;5017546;28;20076;-90
2022/03/26 06:12:03;;;;;;;112.38;41.63;;;1.50;99.90;;;;;;5035209;28;20044;-90
2022/03/26 06:14:29;;;;;;;101.18;38.20;;;1.60;99.90;;;;;;5010386;28;20128;-90
2022/03/26 06:16:55;;;;;;;105.78;39.72;;;1.60;99.90;;;;;;5018955;28;20493;-89
2022/03/26 06:19:21;;;;;;;105.30;42.28;;;1.70;99.90;;;;;;5003335;28;20101;-89
2022/03/26 06:21:46;;;;;;;100.60;41.30;;;1.90;99.90;;;;;;5018077;28;20545;-90
2022/03/26 06:24:12;;;;;;;107.25;43.05;;;2.00;99.90;;;;;;5001026;28;20505;-88
2022/03/26 06:26:39;;;;;;;106.43;43.40;;;2.10;99.90;;;;;;5047344;28;20239;-90
2022/03/26 06:29:05;;;;;;;107.88;44.40;;;2.30;99.90;;;;;;5018457;28;20106;-89
2022/03/26 06:31:31;;;;;;;110.47;45.78;;;2.40;99.90;;;;;;5034552;28;20051;-89
2022/03/26 06:33:58;;;;;;;105.32;45.40;;;2.60;99.90;;;;;;5018176;28;20083;-88
2022/03/26 06:36:26;;;;;;;111.65;47.38;;;2.70;99.90;;;;;;5016332;28;20060;-87
2022/03/26 06:38:52;;;;;;;109.00;46.22;;;2.90;99.90;;;;;;5033928;28;20045;-89
2022/03/26 06:41:18;;;;;;;117.07;49.78;;;2.90;99.90;;;;;;5032682;28;20044;-88
2022/03/26 06:43:44;;;;;;;106.63;48.33;;;3.00;99.90;;;;;;5034215;28;20045;-88
2022/03/26 06:46:11;;;;;;;112.40;50.75;;;3.10;99.90;;;;;;5032909;28;20045;-86
2022/03/26 06:48:37;;;;;;;109.78;49.60;;;3.20;99.90;;;;;;4984625;28;20041;-87
2022/03/26 06:51:04;;;;;;;124.47;51.58;;;3.40;99.90;;;;;;5034846;28;20140;-89
2022/03/26 06:53:33;;;;;;;124.00;51.60;;;3.50;99.90;;;;;;5001366;28;20084;-88
2022/03/26 06:55:58;;;;;;;115.35;51.33;;;3.60;99.90;;;;;;5016679;28;20178;-90
2022/03/26 06:58:25;;;;;;;94.93;43.58;;;3.70;99.90;;;;;;4997985;28;20160;-86
2022/03/26 07:00:51;;;;;;;94.30;41.20;;;3.80;99.90;;;;;;5015146;28;20134;-88
2022/03/26 07:03:17;;;;;;;98.63;42.75;;;3.90;99.90;;;;;;5026592;28;20045;-90
2022/03/26 07:05:43;;;;;;;103.75;44.88;;;4.10;99.90;;;;;;4999941;28;20033;-90
2022/03/26 07:08:10;;;;;;;107.20;49.00;;;4.30;99.90;;;;;;5030349;28;20495;-87
2022/03/26 07:10:36;;;;;;;114.72;50.30;;;4.40;99.90;;;;;;5015956;28;20076;-88
2022/03/26 07:13:03;;;;;;;123.32;54.95;;;4.40;99.90;;;;;;5017002;28;20087;-89
2022/03/26 07:15:31;;;;;;;146.48;62.13;;;4.60;99.90;;;;;;5028848;28;20045;-89
2022/03/26 07:17:57;;;;;;;137.23;60.60;;;4.90;99.90;;;;;;5004588;28;20175;-89
2022/03/26 07:20:23;;;;;;;147.18;61.53;;;5.20;99.90;;;;;;5015961;28;20047;-89
2022/03/26 07:22:49;;;;;;;135.77;61.53;;;5.50;99.90;;;;;;5034092;28;20049;-90
2022/03/26 07:25:15;;;;;;;137.95;61.50;;;5.60;99.90;;;;;;5016514;28;20049;-86
2022/03/26 07:27:41;;;;;;;136.02;58.90;;;5.80;99.90;;;;;;5012153;28;20107;-90
2022/03/26 07:30:08;;;;;;;137.40;60.63;;;5.90;99.90;;;;;;5032703;28;20493;-87
2022/03/26 07:32:34;;;;;;;132.48;59.40;;;6.10;99.90;;;;;;4999555;28;20045;-89
2022/03/26 07:35:00;;;;;;;133.30;58.83;;;6.40;99.90;;;;;;5016893;28;20053;-89
2022/03/26 07:37:26;;;;;;;123.68;55.67;;;6.50;99.90;;;;;;5012417;28;20053;-88
2022/03/26 07:39:52;;;;;;;120.10;54.92;;;6.70;99.90;;;;;;5033144;28;20090;-88
2022/03/26 07:42:18;;;;;;;116.22;54.10;;;6.80;99.90;;;;;;5015371;28;20048;-88
2022/03/26 07:44:43;;;;;;;115.50;51.65;;;7.10;99.90;;;;;;5014552;28;20040;-87
2022/03/26 07:47:09;;;;;;;110.82;50.95;;;7.20;99.90;;;;;;4999631;28;20052;-88
2022/03/26 07:49:35;;;;;;;102.60;48.92;;;7.40;99.90;;;;;;5022487;28;20048;-88
2022/03/26 07:52:01;;;;;;;102.60;46.60;;;7.50;99.90;;;;;;5000183;28;20486;-88
2022/03/26 07:54:27;;;;;;;96.47;45.35;;;7.70;99.90;;;;;;5033197;28;20546;-92
2022/03/26 07:56:53;;;;;;;100.72;45.97;;;7.90;99.90;;;;;;5022790;28;20100;-92
2022/03/26 07:59:19;;;;;;;95.30;43.60;;;8.10;99.70;;;;;;5013854;28;20103;-87
2022/03/26 08:01:45;;;;;;;88.05;40.13;;;8.20;98.80;;;;;;4998789;28;20072;-89
2022/03/26 08:04:10;;;;;;;87.75;39.38;;;8.40;97.50;;;;;;5001495;28;20059;-90
2022/03/26 08:06:36;;;;;;;85.68;40.35;;;8.60;96.80;;;;;;5024498;28;20049;-86
2022/03/26 08:09:02;;;;;;;89.53;41.33;;;8.80;95.70;;;;;;5010858;28;20127;-88
2022/03/26 08:11:28;;;;;;;88.10;39.72;;;8.90;95.50;;;;;;5012552;28;20045;-89
2022/03/26 08:13:54;;;;;;;87.13;41.17;;;9.00;95.10;;;;;;5015672;28;20579;-88
2022/03/26 08:16:20;;;;;;;89.38;41.85;;;9.10;94.80;;;;;;5016304;28;20045;-87
2022/03/26 08:18:46;;;;;;;88.78;42.20;;;9.20;94.30;;;;;;5009204;28;20038;-88
2022/03/26 08:21:14;;;;;;;91.07;42.47;;;9.30;94.10;;;;;;5015785;28;20045;-88
2022/03/26 08:23:42;;;;;;;87.65;40.20;;;9.40;93.50;;;;;;5013234;28;20076;-88
2022/03/26 08:26:20;;;;;;;84.45;40.83;;;9.50;93.00;;;;;;5027446;28;20045;-88
2022/03/26 08:28:53;;;;;;;89.20;40.75;;;9.70;92.30;;;;;;5012587;28;20053;-86
2022/03/26 08:31:20;;;;;;;84.93;42.42;;;9.80;92.10;;;;;;5005564;28;20563;-87
2022/03/26 08:33:47;;;;;;;85.43;40.78;;;9.90;91.90;;;;;;5008747;28;20037;-89
2022/03/26 08:36:14;;;;;;;88.93;41.65;;;10.10;91.40;;;;;;5025391;28;20049;-88
2022/03/26 08:38:41;;;;;;;82.28;39.13;;;10.20;91.00;;;;;;5021641;28;20110;-87
2022/03/26 08:41:06;;;;;;;83.50;40.58;;;10.30;90.30;;;;;;5024808;28;20072;-87
2022/03/26 08:43:33;;;;;;;80.32;39.50;;;10.40;89.90;;;;;;5026820;28;20069;-87
2022/03/26 08:45:59;;;;;;;75.40;38.05;;;10.40;89.10;;;;;;5028890;28;20033;-89
2022/03/26 08:48:25;;;;;;;81.60;40.30;;;10.50;88.50;;;;;;5024421;28;20179;-84
2022/03/26 08:50:51;;;;;;;73.53;38.22;;;10.60;88.00;;;;;;5021371;28;20128;-87
2022/03/26 08:53:17;;;;;;;80.45;40.13;;;10.80;87.20;;;;;;5013955;28;20129;-89
2022/03/26 08:55:43;;;;;;;73.70;35.17;;;10.90;86.60;;;;;;5022539;28;20155;-88
2022/03/26 08:58:09;;;;;;;68.47;33.90;;;11.10;86.70;;;;;;5012255;28;20059;-89
2022/03/26 09:00:35;;;;;;;65.85;33.90;;;11.20;86.10;;;;;;5003792;28;20159;-88
2022/03/26 09:03:03;;;;;;;62.55;31.90;;;11.30;85.00;;;;;;4989904;28;20049;-88
2022/03/26 09:05:29;;;;;;;53.95;29.15;;;11.50;84.00;;;;;;5025252;28;20060;-88
2022/03/26 09:07:55;;;;;;;57.17;30.20;;;11.60;83.40;;;;;;5052138;28;20059;-86
2022/03/26 09:10:21;;;;;;;56.20;30.15;;;11.80;83.20;;;;;;5035322;28;20041;-88
2022/03/26 09:12:47;;;;;;;54.42;30.33;;;11.90;83.50;;;;;;5002287;28;20047;-88
2022/03/26 09:15:13;;;;;;;60.30;31.38;;;12.00;83.60;;;;;;5018967;28;20083;-88
2022/03/26 09:17:39;;;;;;;52.35;29.48;;;12.20;84.60;;;;;;5034562;28;20067;-88
2022/03/26 09:20:06;;;;;;;52.33;28.50;;;12.20;84.20;;;;;;5002341;28;20045;-89
2022/03/26 09:22:32;;;;;;;50.83;29.48;;;12.30;84.20;;;;;;4995361;28;20128;-88
2022/03/26 09:24:58;;;;;;;54.35;29.52;;;12.40;84.10;;;;;;5012513;28;20085;-87
2022/03/26 09:27:24;;;;;;;59.30;31.60;;;12.50;83.80;;;;;;4995426;28;20486;-87
2022/03/26 09:29:50;;;;;;;55.20;32.05;;;12.60;83.80;;;;;;5013554;28;20144;-88
2022/03/26 09:32:16;;;;;;;56.70;32.13;;;12.70;83.50;;;;;;5023408;28;20064;-89
2022/03/26 09:34:42;;;;;;;60.05;32.72;;;12.80;83.30;;;;;;4995452;28;20124;-88
2022/03/26 09:37:08;;;;;;;56.90;31.23;;;13.00;82.80;;;;;;4998845;28;20132;-89
2022/03/26 09:39:34;;;;;;;52.65;30.65;;;13.20;82.30;;;;;;4995807;28;20056;-89
2022/03/26 09:42:00;;;;;;;50.50;27.38;;;13.40;81.40;;;;;;5008562;28;20042;-87
2022/03/26 09:44:27;;;;;;;40.90;24.08;;;13.70;80.40;;;;;;5005049;28;20041;-87
2022/03/26 09:46:55;;;;;;;42.15;24.67;;;14.70;77.80;;;;;;5028684;28;20049;-89
2022/03/26 09:49:21;;;;;;;39.47;24.85;;;16.00;72.90;;;;;;5015615;28;20052;-86
2022/03/26 09:51:54;;;;;;;45.90;27.30;;;17.10;68.50;;;;;;5027314;28;20037;-89
2022/03/26 09:54:22;;;;;;;34.00;23.00;;;18.00;64.60;;;;;;5017391;28;20056;-88
2022/03/26 09:56:47;;;;;;;40.22;23.95;;;18.80;61.80;;;;;;5024104;28;20116;-89
2022/03/26 09:59:31;;;;;;;34.05;21.58;;;19.40;59.30;;;;;;5010932;28;20183;-89
2022/03/26 10:01:57;;;;;;;33.00;21.05;;;19.90;55.90;;;;;;5017555;28;20508;-88
2022/03/26 10:04:37;;;;;;;35.45;20.83;;;20.20;54.50;;;;;;5026564;28;20053;-88
2022/03/26 10:07:04;;;;;;;30.92;20.67;;;20.50;53.20;;;;;;5001616;28;20132;-89
2022/03/26 10:09:45;;;;;;;28.65;19.55;;;20.70;51.80;;;;;;4994540;28;20045;-88
2022/03/26 10:12:12;;;;;;;23.63;16.95;;;21.00;50.10;;;;;;4998209;28;20100;-89
2022/03/26 10:14:48;;;;;;;26.45;17.45;;;21.40;49.50;;;;;;4997236;28;20053;-87
2022/03/26 10:17:30;;;;;;;23.73;16.25;;;21.70;47.10;;;;;;5014094;28;20049;-88
2022/03/26 10:19:59;;;;;;;25.70;15.90;;;21.90;46.00;;;;;;5026609;28;20074;-89
2022/03/26 10:22:29;;;;;;;22.85;15.77;;;22.00;46.30;;;;;;5028338;28;20041;-89
2022/03/26 10:24:57;;;;;;;22.27;16.35;;;22.20;45.30;;;;;;5015155;28;20478;-84
2022/03/26 10:27:23;;;;;;;26.80;16.42;;;22.40;44.60;;;;;;4991463;28;20045;-88
2022/03/26 10:30:01;;;;;;;20.40;15.10;;;22.80;44.00;;;;;;5011969;28;20119;-90
2022/03/26 10:32:38;;;;;;;21.42;16.90;;;23.00;43.10;;;;;;5022720;28;20481;-90
2022/03/26 10:35:24;;;;;;;19.17;15.30;;;22.90;41.90;;;;;;5031520;28;20084;-88
2022/03/26 10:37:56;;;;;;;19.97;16.57;;;22.80;42.10;;;;;;5032293;28;20120;-86
2022/03/26 10:40:35;;;;;;;27.90;16.33;;;23.00;42.20;;;;;;5024815;28;20314;-89
2022/03/26 10:43:11;;;;;;;21.75;14.95;;;23.30;41.50;;;;;;5034073;28;20155;-90
2022/03/26 10:45:51;;;;;;;20.65;15.75;;;23.60;40.00;;;;;;5029707;28;20042;-90
2022/03/26 10:48:27;;;;;;;21.85;14.68;;;23.50;40.10;;;;;;5035455;28;20051;-90
2022/03/26 10:51:10;;;;;;;19.80;15.20;;;23.40;39.70;;;;;;5031315;28;20132;-90
2022/03/26 10:53:44;;;;;;;18.20;14.70;;;23.40;40.20;;;;;;5023101;28;20098;-89
2022/03/26 10:56:12;;;;;;;23.60;14.65;;;23.80;40.20;;;;;;5025075;28;20041;-89
2022/03/26 10:58:38;;;;;;;19.23;14.27;;;23.90;39.60;;;;;;5033423;28;20076;-88
2022/03/26 11:01:05;;;;;;;15.40;11.80;;;24.00;39.30;;;;;;5002057;28;20052;-89
2022/03/26 11:03:32;;;;;;;16.92;11.10;;;24.30;38.80;;;;;;5030241;28;20067;-88
2022/03/26 11:05:58;;;;;;;17.25;10.15;;;24.50;37.90;;;;;;5009794;28;20057;-89
2022/03/26 11:08:29;;;;;;;14.23;9.90;;;24.90;37.30;;;;;;5035832;28;20053;-91
2022/03/26 11:10:55;;;;;;;13.80;9.73;;;25.50;36.60;;;;;;5002830;28;20102;-87
2022/03/26 11:13:24;;;;;;;13.18;10.25;;;25.70;35.10;;;;;;5032830;28;20108;-88
2022/03/26 11:15:56;;;;;;;13.68;9.52;;;25.30;35.20;;;;;;5029039;28;20056;-89
2022/03/26 11:18:36;;;;;;;13.23;10.43;;;25.30;35.50;;;;;;5012380;28;20084;-89
2022/03/26 11:21:25;;;;;;;13.90;10.07;;;25.30;35.30;;;;;;5024104;28;20041;-87
2022/03/26 11:24:29;;;;;;;12.60;9.38;;;25.50;34.00;;;;;;5017506;28;20044;-92
2022/03/26 11:27:23;;;;;;;15.80;9.55;;;25.50;33.60;;;;;;5004683;28;20073;-91
2022/03/26 11:30:22;;;;;;;12.10;9.13;;;25.70;34.40;;;;;;5025536;28;20058;-90
2022/03/26 11:32:51;;;;;;;10.82;8.02;;;26.00;33.60;;;;;;5006102;28;20090;-89
2022/03/26 11:35:18;;;;;;;10.73;7.75;;;26.40;34.40;;;;;;5020865;28;20498;-90
2022/03/26 11:37:52;;;;;;;11.93;8.00;;;26.60;33.20;;;;;;4999643;28;20045;-90
2022/03/26 11:40:43;;;;;;;11.98;7.72;;;26.60;32.20;;;;;;5016793;28;20060;-90
2022/03/26 11:43:15;;;;;;;11.75;8.02;;;26.80;31.60;;;;;;5033457;28;20053;-90
2022/03/26 11:51:23;;;;;;;13.70;7.60;;;25.80;30.90;;;;;;5032995;28;19924;-89
2022/03/26 11:54:03;;;;;;;10.13;7.70;;;25.60;33.30;;;;;;5016240;28;20052;-90
2022/03/26 11:56:32;;;;;;;10.73;7.03;;;25.40;33.60;;;;;;5033420;28;20803;-90
2022/03/26 11:59:16;;;;;;;10.68;6.70;;;25.40;33.60;;;;;;5017192;28;20052;-90
2022/03/26 12:01:47;;;;;;;9.32;6.57;;;25.40;33.00;;;;;;5032014;28;20041;-91
2022/03/26 12:04:28;;;;;;;8.38;7.43;;;25.40;32.70;;;;;;5017229;28;20045;-90
2022/03/26 12:06:54;;;;;;;11.45;6.40;;;25.20;33.10;;;;;;5015591;28;20053;-89
2022/03/26 12:09:37;;;;;;;9.38;6.57;;;25.30;33.50;;;;;;5013369;28;20494;-88
2022/03/26 12:12:06;;;;;;;10.48;7.00;;;25.60;32.70;;;;;;5030254;28;20048;-89
2022/03/26 12:14:55;;;;;;;10.82;7.40;;;25.70;32.90;;;;;;5014145;28;20064;-89
2022/03/26 12:17:44;;;;;;;11.68;7.03;;;25.60;32.80;;;;;;5009723;28;20060;-90
2022/03/26 12:20:32;;;;;;;8.65;5.82;;;24.80;32.50;;;;;;5030345;28;20088;-90
2022/03/26 12:23:02;;;;;;;8.65;6.20;;;24.40;34.10;;;;;;5006789;28;20041;-89
2022/03/26 12:25:47;;;;;;;9.20;6.07;;;24.70;34.70;;;;;;5012599;28;20557;-91
2022/03/26 12:28:18;;;;;;;8.15;5.00;;;25.60;33.10;;;;;;5012883;28;20548;-91
2022/03/26 12:30:49;;;;;;;8.02;4.88;;;26.20;32.10;;;;;;5031662;28;20072;-90
2022/03/26 12:33:15;;;;;;;7.60;5.20;;;26.50;31.80;;;;;;5000481;28;20140;-91
2022/03/26 12:35:46;;;;;;;7.30;4.72;;;26.40;31.20;;;;;;5009350;28;20041;-89
2022/03/26 12:38:13;;;;;;;8.07;5.00;;;26.20;32.10;;;;;;5005279;28;20580;-90
2022/03/26 12:40:39;;;;;;;8.30;4.60;;;26.00;31.80;;;;;;5009332;28;20045;-88
2022/03/26 12:43:09;;;;;;;6.47;4.75;;;26.50;31.90;;;;;;4993689;28;20049;-91